Time;durP1;ratioP1;P1;durP2;ratioP2;P2;SDS_P1;SDS_P2;PMS_P1;PMS_P2;Temp;Humidity;BMP_temperature;BMP_pressure;BME280_temperature;BME280_humidity;BME280_pressure;Samples;Min_cycle;Max_cycle;Signal;HPM_P1;HPM_P2
2022/12/28 00:01:46;;;;;;;3.40;3.30;;;;;;;3.75;100.00;101525.63;6074240;23;20018;-78
2022/12/28 00:04:16;;;;;;;3.60;3.30;;;;;;;3.47;100.00;101477.44;6100824;23;20021;-77
2022/12/28 00:06:44;;;;;;;3.63;3.42;;;;;;;1.59;100.00;101205.28;6092895;23;20015;-78
2022/12/28 00:09:11;;;;;;;5.20;3.65;;;;;;;3.98;100.00;101566.91;6094498;23;20037;-78
2022/12/28 00:11:39;;;;;;;3.15;3.05;;;;;;;4.27;100.00;101609.03;6079412;23;20022;-78
2022/12/28 00:14:06;;;;;;;3.42;3.20;;;;;;;3.43;100.00;101449.81;6107424;23;20089;-78
2022/12/28 00:16:38;;;;;;;3.28;3.17;;;;;;;3.71;100.00;101502.28;6079139;23;20424;-78
2022/12/28 00:19:09;;;;;;;3.50;3.40;;;;;;;4.47;100.00;101629.56;6097989;23;20143;-78
2022/12/28 00:21:36;;;;;;;4.00;3.80;;;;;;;3.28;100.00;101430.94;6094564;23;20200;-78
2022/12/28 00:24:04;;;;;;;3.25;3.10;;;;;;;3.14;100.00;101396.50;6073323;23;20030;-79
2022/12/28 00:26:32;;;;;;;3.33;3.20;;;;;;;3.90;100.00;101511.59;6093584;23;20026;-78
2022/12/28 00:29:00;;;;;;;5.75;3.65;;;;;;;4.51;100.00;101594.88;6095381;23;20014;-79
2022/12/28 00:31:32;;;;;;;4.15;3.88;;;;;;;3.71;100.00;101465.94;6094971;23;20033;-78
2022/12/28 00:33:59;;;;;;;3.20;3.10;;;;;;;3.34;100.00;101424.84;6137986;23;20068;-79
2022/12/28 00:36:25;;;;;;;3.10;3.00;;;;;;;3.46;100.00;101418.66;6075367;23;20029;-78
2022/12/28 00:39:14;;;;;;;3.17;3.08;;;;;;;3.95;100.00;101496.84;6134922;23;20014;-79
2022/12/28 00:41:40;;;;;;;3.80;3.60;;;;;;;4.20;100.00;101544.13;6078506;23;20022;-78
2022/12/28 00:44:07;;;;;;;3.75;3.55;;;;;;;4.24;100.00;101557.97;6098979;23;20037;-78
2022/12/28 00:46:34;;;;;;;3.65;3.55;;;;;;;4.12;100.00;101521.75;6098023;23;20132;-78
2022/12/28 00:49:01;;;;;;;3.63;3.42;;;;;;;4.05;100.00;101509.69;6124451;23;20083;-78
2022/12/28 00:51:27;;;;;;;3.05;2.95;;;;;;;3.24;100.00;101360.97;6106867;23;20030;-79
2022/12/28 00:53:54;;;;;;;2.97;2.88;;;;;;;4.43;100.00;101539.53;6109454;23;20399;-78
2022/12/28 00:56:21;;;;;;;4.18;3.95;;;;;;;4.27;100.00;101508.56;6101243;23;20419;-79
2022/12/28 00:58:49;;;;;;;3.17;3.00;;;;;;;3.98;100.00;101454.38;6120688;23;20615;-77
2022/12/28 01:01:18;;;;;;;3.30;3.10;;;;;;;3.91;100.00;101411.19;6119741;23;20022;-79
2022/12/28 01:03:46;;;;;;;3.22;3.10;;;;;;;4.54;100.00;101506.47;6120828;23;20036;-79
2022/12/28 01:06:15;;;;;;;3.90;3.70;;;;;;;4.56;100.00;101508.16;6100848;23;20440;-77
2022/12/28 01:08:43;;;;;;;3.20;3.10;;;;;;;4.58;100.00;101492.53;6128898;23;20116;-79
2022/12/28 01:11:22;;;;;;;3.30;3.20;;;;;;;4.64;100.00;101489.84;6073473;23;20097;-79
2022/12/28 01:13:50;;;;;;;3.35;3.25;;;;;;;4.66;100.00;101495.88;6127338;23;20032;-78
2022/12/28 01:16:22;;;;;;;8.32;3.47;;;;;;;4.31;100.00;101442.69;6079530;23;20459;-79
2022/12/28 01:18:55;;;;;;;3.75;3.53;;;;;;;4.71;100.00;101491.50;6099315;23;20029;-78
2022/12/28 01:21:24;;;;;;;3.28;3.17;;;;;;;3.30;100.00;101260.56;6083401;23;20088;-79
2022/12/28 01:23:57;;;;;;;3.90;3.70;;;;;;;3.50;100.00;101281.06;6097922;23;20029;-78
2022/12/28 01:26:24;;;;;;;3.60;3.40;;;;;;;3.59;100.00;101265.38;6092504;23;20014;-77
2022/12/28 01:28:51;;;;;;;3.42;3.33;;;;;;;4.56;100.00;101416.31;6095664;23;20093;-78
2022/12/28 01:31:19;;;;;;;3.53;3.33;;;;;;;4.75;100.00;101454.16;6072539;23;20018;-77
2022/12/28 01:33:46;;;;;;;3.30;3.20;;;;;;;4.71;100.00;101444.69;6098905;23;20521;-79
2022/12/28 01:36:19;;;;;;;5.28;3.25;;;;;;;4.24;100.00;101354.47;6079890;23;20112;-78
2022/12/28 01:38:46;;;;;;;3.45;3.35;;;;;;;4.77;100.00;101429.00;6092973;23;20020;-77
2022/12/28 01:41:15;;;;;;;3.70;3.55;;;;;;;4.78;100.00;101430.69;6097327;23;20546;-78
2022/12/28 01:44:12;;;;;;;3.38;3.28;;;;;;;4.34;100.00;101349.06;6124982;23;20017;-77
2022/12/28 01:46:42;;;;;;;3.38;3.28;;;;;;;4.87;100.00;101440.09;6071249;23;20018;-79
2022/12/28 01:49:14;;;;;;;3.50;3.40;;;;;;;3.48;100.00;101181.63;6092101;23;20080;-79
2022/12/28 01:51:45;;;;;;;3.75;3.58;;;;;;;3.50;100.00;101176.41;6074877;23;20085;-78
2022/12/28 01:54:12;;;;;;;3.33;3.22;;;;;;;3.91;100.00;101226.81;6094261;23;20029;-79
2022/12/28 01:56:43;;;;;;;4.00;3.80;;;;;;;5.06;100.00;101412.00;6068955;23;20016;-77
2022/12/28 01:59:10;;;;;;;3.20;3.10;;;;;;;4.33;100.00;101272.03;6129910;23;20447;-78
2022/12/28 02:01:37;;;;;;;3.65;3.47;;;;;;;3.89;100.00;101219.06;6072541;23;20672;-79
2022/12/28 02:04:04;;;;;;;3.20;3.10;;;;;;;3.40;100.00;101101.31;6093072;23;20022;-79
2022/12/28 02:06:31;;;;;;;3.80;3.60;;;;;;;5.05;100.00;101384.28;6076340;23;20588;-78
2022/12/28 02:09:04;;;;;;;3.45;3.33;;;;;;;5.13;100.00;101389.34;6096523;23;20037;-78
2022/12/28 02:11:31;;;;;;;3.78;3.58;;;;;;;4.49;100.00;101300.31;6101943;23;20608;-79
2022/12/28 02:14:00;;;;;;;3.60;3.50;;;;;;;4.23;100.00;101233.22;6130918;23;20048;-79
2022/12/28 02:16:27;;;;;;;3.35;3.25;;;;;;;4.50;100.00;101276.06;6097604;23;20022;-78
2022/12/28 02:18:54;;;;;;;3.40;3.20;;;;;;;4.85;100.00;101356.03;6131498;23;20498;-78
2022/12/28 02:22:00;;;;;;;3.80;3.47;;;;;;;5.20;100.00;101373.59;6077015;23;20368;-78
2022/12/28 02:24:45;;;;;;;3.30;3.10;;;;;;;5.22;100.00;101365.75;6126099;23;20033;-78
2022/12/28 02:27:53;;;;;;;3.80;3.60;;;;;;;4.99;100.00;101329.75;6100770;23;20745;-79
2022/12/28 02:30:20;;;;;;;3.30;3.20;;;;;;;4.70;100.00;101279.16;6111540;23;20447;-79
2022/12/28 02:33:02;;;;;;;4.18;3.97;;;;;;;5.25;100.00;101364.84;6096264;23;20032;-78
2022/12/28 02:35:38;;;;;;;3.55;3.38;;;;;;;4.16;100.00;101180.53;6123587;23;20744;-78
2022/12/28 02:38:20;;;;;;;3.35;3.22;;;;;;;4.82;100.00;101277.22;6090916;23;20026;-78
2022/12/28 02:40:55;;;;;;;3.92;3.72;;;;;;;5.03;100.00;101313.19;6098452;23;20289;-77
2022/12/28 02:43:21;;;;;;;3.78;3.58;;;;;;;4.95;100.00;101283.88;6062328;23;20069;-78
2022/12/28 02:51:57;;;;;;;3.60;3.40;;;;;;;5.34;100.00;101330.81;6122728;23;20051;-78
2022/12/28 02:58:00;;;;;;;3.40;3.30;;;;;;;5.35;100.00;101309.97;6122230;23;20084;-78
2022/12/28 03:00:51;;;;;;;3.60;3.40;;;;;;;4.08;100.00;101086.31;6090204;23;20045;-78
2022/12/28 03:03:43;;;;;;;3.22;3.13;;;;;;;4.44;100.00;101147.09;6037928;23;20035;-79
2022/12/28 03:09:40;;;;;;;3.45;3.35;;;;;;;5.43;100.00;101290.72;6122571;23;20021;-78
2022/12/28 03:12:25;;;;;;;3.28;3.17;;;;;;;5.28;100.00;101260.69;6046950;23;20036;-78
2022/12/28 03:14:58;;;;;;;3.47;3.30;;;;;;;4.56;100.00;101133.00;6125325;23;20664;-77
2022/12/28 03:31:33;;;;;;;3.40;3.20;;;;;;;5.23;100.00;101205.28;6120606;23;20029;-77
2022/12/28 03:34:07;;;;;;;3.22;3.13;;;;;;;4.52;100.00;101085.41;6097539;23;20017;-79
2022/12/28 03:36:58;;;;;;;4.30;3.90;;;;;;;5.55;100.00;101252.28;6099572;23;20014;-78
2022/12/28 03:39:40;;;;;;;3.30;3.20;;;;;;;5.26;100.00;101210.44;6072576;23;20049;-77
2022/12/28 03:45:22;;;;;;;3.72;3.53;;;;;;;5.64;100.00;101238.19;6097268;23;20509;-78
2022/12/28 03:48:10;;;;;;;3.80;3.60;;;;;;;5.35;100.00;101197.19;6108545;23;20022;-78
2022/12/28 03:50:41;;;;;;;3.30;3.20;;;;;;;5.36;100.00;101184.16;6078367;23;20046;-79
2022/12/28 03:53:08;;;;;;;4.38;4.13;;;;;;;5.51;100.00;101210.72;6090183;23;20028;-78
2022/12/28 03:55:38;;;;;;;4.15;3.92;;;;;;;5.38;100.00;101189.31;6081434;23;20698;-78
2022/12/28 03:58:05;;;;;;;3.20;3.10;;;;;;;4.99;100.00;101106.94;6105575;23;20010;-78
2022/12/28 04:00:32;;;;;;;3.45;3.35;;;;;;;5.41;100.00;101176.22;6070954;23;20014;-78
2022/12/28 04:02:58;;;;;;;6.85;3.40;;;;;;;5.55;100.00;101183.72;6093600;23;20075;-77
2022/12/28 04:05:25;;;;;;;3.80;3.60;;;;;;;5.05;100.00;101108.56;6097143;23;20327;-78
2022/12/28 04:07:52;;;;;;;3.72;3.53;;;;;;;5.61;100.00;101194.00;6098431;23;20142;-78
2022/12/28 04:10:18;;;;;;;3.90;3.70;;;;;;;5.42;100.00;101166.69;6098032;23;20022;-79
2022/12/28 04:12:45;;;;;;;4.25;3.95;;;;;;;5.21;100.00;101122.03;6132243;23;20017;-78
2022/12/28 04:15:14;;;;;;;3.75;3.55;;;;;;;4.53;100.00;101003.09;6068501;23;21028;-79
2022/12/28 04:17:40;;;;;;;3.53;3.33;;;;;;;5.54;100.00;101169.84;6122956;23;20112;-78
2022/12/28 04:20:07;;;;;;;3.70;3.50;;;;;;;5.20;100.00;101099.53;6081804;23;20006;-78
2022/12/28 04:22:34;;;;;;;4.95;3.92;;;;;;;5.10;100.00;101065.06;6101190;23;20091;-78
2022/12/28 04:25:00;;;;;;;3.70;3.50;;;;;;;5.37;100.00;101096.50;6071667;23;20661;-78
2022/12/28 04:27:27;;;;;;;4.07;3.88;;;;;;;5.72;100.00;101095.63;6127713;23;20021;-79
2022/12/28 04:29:53;;;;;;;3.83;3.63;;;;;;;6.12;100.00;101151.94;6106802;23;20396;-79
2022/12/28 04:32:20;;;;;;;3.63;3.42;;;;;;;5.72;100.00;101060.94;6133156;23;20056;-79
2022/12/28 04:34:46;;;;;;;3.60;3.40;;;;;;;4.66;100.00;100884.09;6069063;23;20490;-78
2022/12/28 04:37:14;;;;;;;3.63;3.53;;;;;;;5.64;100.00;101049.88;6101811;23;20029;-78
2022/12/28 04:39:41;;;;;;;3.50;3.40;;;;;;;5.59;100.00;101031.75;6098325;23;20009;-80
2022/12/28 04:42:24;;;;;;;3.92;3.72;;;;;;;6.71;100.00;101212.94;6127552;23;20021;-79
2022/12/28 04:44:51;;;;;;;4.00;3.80;;;;;;;6.79;100.00;101201.41;6073537;23;20038;-79
2022/12/28 04:47:17;;;;;;;4.03;3.83;;;;;;;5.94;100.00;101043.84;6132146;23;20461;-79
2022/12/28 04:49:43;;;;;;;3.80;3.60;;;;;;;6.71;100.00;101165.97;6092097;23;20022;-78
2022/12/28 04:52:10;;;;;;;3.60;3.50;;;;;;;6.21;100.00;101059.63;6128843;23;20018;-78
2022/12/28 04:54:36;;;;;;;3.92;3.72;;;;;;;5.84;100.00;101000.72;6092779;23;20032;-78
2022/12/28 04:57:03;;;;;;;5.78;4.22;;;;;;;6.46;100.00;101079.78;6096034;23;20118;-79
2022/12/28 04:59:29;;;;;;;3.70;3.50;;;;;;;5.57;100.00;100945.91;6076859;23;20404;-79
2022/12/28 05:01:56;;;;;;;4.40;4.00;;;;;;;6.48;100.00;101075.38;6097256;23;20014;-78
2022/12/28 05:04:22;;;;;;;5.03;3.80;;;;;;;5.62;100.00;100917.13;6082471;23;20030;-78
2022/12/28 05:06:49;;;;;;;4.07;3.80;;;;;;;6.98;100.00;101135.63;6104851;23;20092;-78
2022/12/28 05:09:18;;;;;;;3.90;3.70;;;;;;;6.41;100.00;101042.56;6095823;23;20353;-78
2022/12/28 05:11:44;;;;;;;4.97;4.25;;;;;;;7.12;100.00;101125.63;6092323;23;20767;-78
2022/12/28 05:14:11;;;;;;;3.80;3.60;;;;;;;3.30;100.00;100505.78;6086473;23;20018;-78
2022/12/28 05:16:38;;;;;;;11.27;10.77;;;;;;;6.98;100.00;101106.94;6051358;23;20037;-77
2022/12/28 05:19:07;;;;;;;3.88;3.67;;;;;;;6.75;100.00;101056.28;6059312;23;20095;-78
2022/12/28 05:21:33;;;;;;;4.00;3.80;;;;;;;6.97;100.00;101107.81;6127771;23;20025;-79
2022/12/28 05:24:00;;;;;;;4.20;4.00;;;;;;;7.34;100.00;101154.53;6098001;23;20045;-79
2022/12/28 05:26:31;;;;;;;3.53;3.42;;;;;;;7.65;100.00;101177.03;6143056;23;20039;-78
2022/12/28 05:28:57;;;;;;;3.95;3.75;;;;;;;4.04;100.00;100596.44;6073361;23;20514;-79
2022/12/28 05:31:24;;;;;;;3.63;3.53;;;;;;;6.71;100.00;101020.78;6133489;23;20029;-79
2022/12/28 05:33:53;;;;;;;3.60;3.50;;;;;;;7.48;100.00;101132.34;6079912;23;20090;-80
2022/12/28 05:36:22;;;;;;;3.83;3.63;;;;;;;7.75;100.00;101168.00;6130920;23;20676;-79
2022/12/28 05:38:49;;;;;;;4.05;3.60;;;;;;;7.78;100.00;101151.38;6070216;23;20022;-79
2022/12/28 05:41:18;;;;;;;4.03;3.83;;;;;;;7.77;100.00;101162.72;6130280;23;20134;-80
2022/12/28 05:43:50;;;;;;;3.90;3.70;;;;;;;5.40;100.00;100784.13;6076688;23;20036;-80
2022/12/28 05:46:23;;;;;;;6.10;3.80;;;;;;;7.74;100.00;101153.25;6111972;23;20425;-79
2022/12/28 05:48:50;;;;;;;3.60;3.50;;;;;;;6.74;100.00;100989.38;6106489;23;20016;-79
2022/12/28 05:51:21;;;;;;;4.10;3.90;;;;;;;7.84;100.00;101152.91;6099586;23;20017;-80
2022/12/28 05:53:48;;;;;;;3.90;3.75;;;;;;;7.51;100.00;101127.84;6103923;23;20579;-80
2022/12/28 05:56:20;;;;;;;3.90;3.70;;;;;;;7.41;100.00;101078.59;6080881;23;20042;-77
2022/12/28 05:59:12;;;;;;;4.10;3.90;;;;;;;7.26;100.00;101043.41;6132765;23;20028;-79
2022/12/28 06:01:42;;;;;;;3.57;3.47;;;;;;;7.62;100.00;101106.63;6071094;23;20037;-79
2022/12/28 06:04:18;;;;;;;3.95;3.75;;;;;;;6.52;100.00;100902.31;6125135;23;20373;-79
2022/12/28 06:06:46;;;;;;;6.30;3.75;;;;;;;7.48;100.00;101082.72;6096794;23;20035;-78
2022/12/28 06:09:13;;;;;;;3.70;3.60;;;;;;;8.02;100.00;101143.59;6100910;23;20455;-79
2022/12/28 06:11:40;;;;;;;3.80;3.60;;;;;;;7.10;100.00;100998.69;6091188;23;20033;-81
2022/12/28 06:14:07;;;;;;;3.83;3.63;;;;;;;7.46;100.00;101077.56;6131961;23;20024;-79
2022/12/28 06:16:37;;;;;;;3.90;3.70;;;;;;;7.37;100.00;101023.00;6075580;23;20017;-80
2022/12/28 06:19:09;;;;;;;4.10;3.90;;;;;;;7.78;100.00;101073.84;6094519;23;20028;-80
2022/12/28 06:21:39;;;;;;;4.22;4.03;;;;;;;7.95;100.00;101091.53;6105511;23;20021;-79
2022/12/28 06:24:07;;;;;;;4.47;3.92;;;;;;;8.15;100.00;101116.97;6098082;23;20029;-81
2022/12/28 06:26:35;;;;;;;3.80;3.60;;;;;;;7.42;100.00;100991.50;6096443;23;20025;-80
2022/12/28 06:29:03;;;;;;;3.90;3.70;;;;;;;5.04;100.00;100610.03;6092288;23;20631;-79
2022/12/28 06:31:31;;;;;;;3.90;3.60;;;;;;;6.65;100.00;100866.25;6112319;23;20013;-80
2022/12/28 06:34:01;;;;;;;5.30;4.38;;;;;;;7.89;100.00;101081.31;6101231;23;20687;-81
2022/12/28 06:36:33;;;;;;;4.15;3.95;;;;;;;7.93;100.00;101092.50;6140363;23;20018;-81
2022/12/28 06:39:03;;;;;;;4.32;4.13;;;;;;;7.45;100.00;101007.09;6082318;23;20034;-79
2022/12/28 06:41:30;;;;;;;4.95;4.47;;;;;;;7.39;100.00;100995.09;6100150;23;20076;-79
2022/12/28 06:43:57;;;;;;;4.10;3.90;;;;;;;7.90;100.00;101079.56;6085717;23;20085;-77
2022/12/28 06:46:27;;;;;;;3.95;3.78;;;;;;;8.09;100.00;101124.19;6103463;23;20574;-79
2022/12/28 06:48:54;;;;;;;3.90;3.60;;;;;;;5.00;100.00;100614.47;6093167;23;20018;-77
2022/12/28 06:51:26;;;;;;;3.85;3.70;;;;;;;8.06;100.00;101117.31;6105397;23;20029;-79
2022/12/28 06:53:53;;;;;;;4.20;4.00;;;;;;;8.06;100.00;101124.28;6078115;23;20045;-81
2022/12/28 06:56:26;;;;;;;4.10;3.90;;;;;;;5.09;100.00;100657.56;6123593;23;20024;-77
2022/12/28 06:58:53;;;;;;;3.55;3.45;;;;;;;8.01;100.00;101124.47;6073557;23;20038;-77
2022/12/28 07:01:33;;;;;;;3.40;3.30;;;;;;;8.05;100.00;101127.81;6079444;23;20069;-78
2022/12/28 07:04:02;;;;;;;3.90;3.70;;;;;;;7.21;100.00;100991.34;6106029;23;20029;-79
2022/12/28 07:06:29;;;;;;;3.88;3.70;;;;;;;8.10;100.00;101128.53;6067372;23;20308;-80
2022/12/28 07:09:00;;;;;;;3.70;3.60;;;;;;;7.87;100.00;101093.56;6127077;23;20089;-80
2022/12/28 07:11:27;;;;;;;4.25;3.85;;;;;;;7.80;100.00;101110.38;6071468;23;20014;-78
2022/12/28 07:13:55;;;;;;;8.27;3.90;;;;;;;7.60;100.00;101087.53;6121591;23;20053;-80
2022/12/28 07:16:23;;;;;;;4.22;3.97;;;;;;;7.74;100.00;101092.31;6069283;23;20087;-79
2022/12/28 07:18:49;;;;;;;3.70;3.60;;;;;;;6.84;100.00;100934.31;6125481;23;20048;-78
2022/12/28 07:21:20;;;;;;;4.18;3.92;;;;;;;7.25;100.00;101015.59;6090557;23;20220;-80
2022/12/28 07:23:48;;;;;;;3.83;3.63;;;;;;;8.02;100.00;101135.75;6099769;23;20029;-79
2022/12/28 07:26:20;;;;;;;3.92;3.72;;;;;;;5.36;100.00;100696.63;6073889;23;20604;-78
2022/12/28 07:28:49;;;;;;;4.00;3.80;;;;;;;6.83;100.00;100940.44;6120004;23;20021;-79
2022/12/28 07:31:22;;;;;;;3.83;3.70;;;;;;;8.00;100.00;101141.06;6088061;23;20049;-79
2022/12/28 07:33:50;;;;;;;3.85;3.65;;;;;;;6.91;100.00;100962.75;6078029;23;20087;-77
2022/12/28 07:36:21;;;;;;;4.07;3.78;;;;;;;7.16;100.00;100988.91;6062547;23;20080;-79
2022/12/28 07:38:48;;;;;;;3.58;3.47;;;;;;;7.04;100.00;100957.16;6118347;23;20021;-79
2022/12/28 07:41:19;;;;;;;4.20;4.00;;;;;;;7.42;100.00;101047.22;6071715;23;20095;-78
2022/12/28 07:43:46;;;;;;;3.78;3.65;;;;;;;8.10;100.00;101144.22;6102669;23;20028;-80
2022/12/28 07:46:33;;;;;;;3.50;3.40;;;;;;;8.16;100.00;101139.63;6074604;23;20073;-79
2022/12/28 07:48:59;;;;;;;4.43;3.63;;;;;;;7.80;100.00;101107.78;6111389;23;20028;-81
2022/12/28 07:51:31;;;;;;;3.95;3.75;;;;;;;7.08;100.00;100977.03;6083918;23;20024;-80
2022/12/28 07:53:59;;;;;;;4.20;4.00;;;;;;;6.63;100.00;100938.47;6113084;23;20025;-81
2022/12/28 07:56:27;;;;;;;3.70;3.60;;;;;;;8.16;100.00;101126.53;6085334;23;20424;-80
2022/12/28 07:58:56;;;;;;;5.80;4.50;;;;;;;8.14;100.00;101132.75;6116238;23;20033;-80
2022/12/28 08:01:25;;;;;;;4.80;3.75;;;;;;;8.11;100.00;101128.44;6078794;23;20410;-82
2022/12/28 08:03:54;;;;;;;3.60;3.50;;;;;;;7.83;100.00;101073.69;6110009;23;20169;-80
2022/12/28 08:06:22;;;;;;;4.20;4.00;;;;;;;7.51;100.00;101026.00;6100416;23;20017;-81
2022/12/28 08:08:52;;;;;;;4.07;3.88;;;;;;;7.97;100.00;101100.19;6101727;23;20021;-81
2022/12/28 08:11:21;;;;;;;3.80;3.50;;;;;;;8.30;100.00;101138.25;6078724;23;20021;-81
2022/12/28 08:13:50;;;;;;;3.58;3.47;;;;;;;8.19;100.00;101123.81;6114828;23;20810;-83
2022/12/28 08:16:18;;;;;;;4.15;3.95;;;;;;;7.68;100.00;101032.44;6079910;23;20026;-81
2022/12/28 08:18:46;;;;;;;4.00;3.80;;;;;;;7.01;100.00;100920.72;6112739;23;20013;-81
2022/12/28 08:21:15;;;;;;;3.90;3.70;;;;;;;7.25;100.00;100953.78;6084330;23;20026;-79
2022/12/28 08:23:44;;;;;;;4.18;3.90;;;;;;;7.72;100.00;101040.09;6114256;23;20073;-79
2022/12/28 08:26:14;;;;;;;3.70;3.60;;;;;;;7.99;100.00;101074.84;6084388;23;20048;-80
2022/12/28 08:28:42;;;;;;;4.10;3.90;;;;;;;7.59;100.00;101010.91;6110891;23;20092;-81
2022/12/28 08:31:12;;;;;;;3.70;3.60;;;;;;;8.50;100.00;101141.06;6102433;23;20042;-81
2022/12/28 08:33:39;;;;;;;3.78;3.67;;;;;;;7.77;100.00;101003.34;6100778;23;20009;-82
2022/12/28 08:36:09;;;;;;;3.80;3.60;;;;;;;8.26;100.00;101084.38;6076588;23;20045;-81
2022/12/28 08:38:37;;;;;;;3.97;3.78;;;;;;;8.58;100.00;101133.78;6103507;23;20116;-81
2022/12/28 08:41:07;;;;;;;4.10;3.90;;;;;;;7.95;100.00;101049.72;6075297;23;20226;-83
2022/12/28 08:43:34;;;;;;;3.90;3.70;;;;;;;8.23;100.00;101085.34;6105083;23;20446;-81
2022/12/28 08:46:10;;;;;;;4.00;3.70;;;;;;;8.32;100.00;101074.56;6112654;23;20010;-81
2022/12/28 08:48:37;;;;;;;3.92;3.72;;;;;;;7.84;100.00;101012.69;6080601;23;20514;-80
2022/12/28 08:51:13;;;;;;;3.97;3.80;;;;;;;8.47;100.00;101072.31;6106211;23;20012;-83
2022/12/28 08:53:40;;;;;;;4.03;3.83;;;;;;;8.85;100.00;101120.56;6078676;23;20459;-83
2022/12/28 08:56:20;;;;;;;3.70;3.60;;;;;;;8.83;100.00;101116.31;6101655;23;20013;-80
2022/12/28 08:58:48;;;;;;;3.90;3.70;;;;;;;8.57;100.00;101089.34;6078316;23;20351;-80
2022/12/28 09:01:29;;;;;;;3.53;3.42;;;;;;;8.98;100.00;101115.72;6082398;23;20010;-80
2022/12/28 09:03:57;;;;;;;3.85;3.65;;;;;;;8.34;100.00;101009.13;6082013;23;20251;-82
2022/12/28 09:06:31;;;;;;;4.60;4.30;;;;;;;7.94;100.00;100948.72;6102408;23;20010;-81
2022/12/28 09:09:01;;;;;;;5.22;4.57;;;;;;;9.00;100.00;101108.66;6071497;23;20033;-82
2022/12/28 09:11:36;;;;;;;5.15;4.75;;;;;;;8.57;100.00;101065.81;6099253;23;20316;-84
2022/12/28 09:14:05;;;;;;;4.60;4.28;;;;;;;8.95;100.00;101079.19;6096453;23;20146;-82
2022/12/28 09:16:32;;;;;;;4.78;4.47;;;;;;;9.12;100.00;101112.53;6123518;23;20628;-80
2022/12/28 09:19:01;;;;;;;4.85;3.97;;;;;;;9.16;100.00;101104.53;6104904;23;20025;-82
2022/12/28 09:21:35;;;;;;;4.80;4.03;;;;;;;9.24;100.00;101119.94;6101726;23;20009;-81
2022/12/28 09:24:02;;;;;;;4.10;3.90;;;;;;;8.61;100.00;101020.31;6075922;23;20441;-82
2022/12/28 09:26:33;;;;;;;4.70;4.30;;;;;;;9.17;100.00;101094.91;6106505;23;20029;-81
2022/12/28 09:29:01;;;;;;;4.60;4.30;;;;;;;9.21;100.00;101093.84;6071422;23;20030;-80
2022/12/28 09:31:30;;;;;;;4.55;4.30;;;;;;;9.22;100.00;101094.72;6128451;23;20036;-83
2022/12/28 09:34:03;;;;;;;5.55;4.68;;;;;;;8.91;100.00;101046.19;6093794;23;20366;-81
2022/12/28 09:36:49;;;;;;;4.97;4.68;;;;;;;9.05;100.00;101070.06;6112525;23;20037;-81
2022/12/28 09:39:18;;;;;;;7.00;5.50;;;;;;;8.84;100.00;101045.59;6095705;23;20032;-80
2022/12/28 09:42:05;;;;;;;5.40;4.90;;;;;;;9.28;100.00;101108.44;6130023;23;20067;-80
2022/12/28 09:44:54;;;;;;;7.72;5.47;;;;;;;7.17;100.00;100771.34;6109728;23;20028;-80
2022/12/28 09:47:44;;;;;;;20.38;6.43;;;;;;;9.31;100.00;101112.69;6107286;23;20147;-80
2022/12/28 09:50:23;;;;;;;17.38;5.32;;;;;;;8.24;100.00;100906.66;6105116;23;20100;-82
2022/12/28 09:53:05;;;;;;;12.30;5.70;;;;;;;9.41;100.00;101100.06;6104172;23;20082;-82
2022/12/28 09:55:38;;;;;;;9.98;6.00;;;;;;;9.46;100.00;101080.63;6103228;23;20261;-79
2022/12/28 09:58:13;;;;;;;8.20;4.47;;;;;;;9.52;100.00;101082.13;6094480;23;20093;-81
2022/12/28 10:00:44;;;;;;;4.10;3.90;;;;;;;9.55;100.00;101076.75;6091838;23;20017;-80
2022/12/28 10:03:18;;;;;;;4.30;4.10;;;;;;;9.35;100.00;101035.69;6072221;23;20025;-80
2022/12/28 10:05:45;;;;;;;4.10;3.90;;;;;;;9.70;100.00;101088.34;6104806;23;20449;-80
2022/12/28 10:08:15;;;;;;;3.95;3.75;;;;;;;9.78;100.00;101081.03;6071242;23;20040;-80
2022/12/28 10:10:42;;;;;;;4.00;3.80;;;;;;;9.47;100.00;101029.94;6097337;23;20510;-81
2022/12/28 10:13:24;;;;;;;3.90;3.70;;;;;;;9.83;100.00;101068.59;6074044;23;20041;-83
2022/12/28 10:16:17;;;;;;;3.97;3.78;;;;;;;9.86;100.00;101062.34;6103688;23;20090;-80
2022/12/28 10:18:47;;;;;;;4.15;3.95;;;;;;;9.87;100.00;101059.66;6095293;23;20229;-81
2022/12/28 10:21:17;;;;;;;4.10;3.90;;;;;;;9.27;100.00;100969.69;6098889;23;20514;-81
2022/12/28 10:23:46;;;;;;;5.13;4.28;;;;;;;9.81;100.00;101062.56;6096500;23;20462;-82
2022/12/28 10:26:34;;;;;;;4.20;4.00;;;;;;;9.83;100.00;101039.75;6106180;23;20025;-79
2022/12/28 10:29:00;;;;;;;4.60;4.28;;;;;;;9.78;100.00;101034.72;6075057;23;20077;-80
2022/12/28 10:31:38;;;;;;;4.40;4.20;;;;;;;6.74;100.00;100524.28;6110140;23;20086;-80
2022/12/28 10:34:21;;;;;;;4.13;3.92;;;;;;;8.82;100.00;100853.75;6078762;23;20252;-79
2022/12/28 10:36:49;;;;;;;;;;;;;;;8.76;100.00;100846.19;6100077;23;20036;-81
2022/12/28 10:39:27;;;;;;;4.35;4.10;;;;;;;9.90;100.00;101016.72;6071198;23;20521;-80
2022/12/28 10:41:57;;;;;;;5.03;4.70;;;;;;;10.08;100.00;101025.53;6064629;23;20464;-80
2022/12/28 10:44:28;;;;;;;4.32;4.13;;;;;;;10.08;99.70;101007.19;6105476;23;20779;-81
2022/12/28 10:47:26;;;;;;;4.70;4.40;;;;;;;9.65;99.60;100975.88;6100291;23;20010;-80
2022/12/28 10:49:53;;;;;;;4.50;4.30;;;;;;;9.19;100.00;100873.94;6126046;23;20036;-79
2022/12/28 10:52:39;;;;;;;8.98;4.10;;;;;;;9.39;100.00;100886.16;6082173;23;20043;-79
2022/12/28 10:55:27;;;;;;;5.30;4.90;;;;;;;10.10;99.82;101002.72;6079331;23;20026;-80
2022/12/28 10:57:54;;;;;;;4.72;4.40;;;;;;;9.21;98.83;100842.47;6105573;23;20022;-80
2022/12/28 11:00:40;;;;;;;4.10;3.90;;;;;;;9.51;99.16;100878.69;6080619;23;20178;-80
2022/12/28 11:03:18;;;;;;;7.88;4.65;;;;;;;9.83;99.01;100945.38;6074413;23;20263;-81
2022/12/28 11:05:45;;;;;;;4.30;4.10;;;;;;;9.57;98.79;100899.38;6082728;23;20026;-80
2022/12/28 11:08:22;;;;;;;4.82;4.53;;;;;;;9.64;98.77;100910.44;6082930;23;20026;-80
2022/12/28 11:10:56;;;;;;;7.18;5.68;;;;;;;8.94;98.26;100781.69;6107849;23;20017;-78
2022/12/28 11:13:22;;;;;;;4.40;4.20;;;;;;;10.12;99.11;100969.41;6119651;23;20009;-79
2022/12/28 11:15:49;;;;;;;4.90;4.60;;;;;;;7.56;98.32;100545.34;6075383;23;20051;-80
2022/12/28 11:18:17;;;;;;;5.40;5.10;;;;;;;10.16;99.71;100987.59;6110958;23;20029;-81
2022/12/28 11:20:47;;;;;;;5.47;4.95;;;;;;;7.11;98.54;100461.03;6084028;23;20258;-78
2022/12/28 11:23:18;;;;;;;4.40;4.20;;;;;;;10.17;98.37;100943.84;6107365;23;20033;-80
2022/12/28 11:25:45;;;;;;;4.40;4.20;;;;;;;10.24;97.81;100950.47;6105330;23;20090;-80
2022/12/28 11:28:21;;;;;;;4.40;4.20;;;;;;;10.28;97.28;100948.56;6110299;23;20020;-80
2022/12/28 11:30:49;;;;;;;4.03;3.85;;;;;;;10.00;96.73;100886.91;6072578;23;20036;-79
2022/12/28 11:33:50;;;;;;;4.18;3.97;;;;;;;9.96;95.14;100851.28;6106501;23;20025;-82
2022/12/28 11:36:19;;;;;;;3.95;3.75;;;;;;;10.27;94.59;100911.00;6002122;23;20029;-80
2022/12/28 11:38:48;;;;;;;5.10;4.82;;;;;;;10.04;94.01;100882.38;6128596;23;20035;-80
2022/12/28 11:41:24;;;;;;;4.30;4.10;;;;;;;9.34;93.06;100738.00;6082162;23;20029;-81
2022/12/28 11:44:01;;;;;;;4.43;4.22;;;;;;;10.16;92.66;100887.91;6093192;23;20081;-81
2022/12/28 11:46:34;;;;;;;4.45;4.20;;;;;;;10.21;92.82;100898.19;6129196;23;20026;-80
2022/12/28 11:49:03;;;;;;;4.30;4.10;;;;;;;10.24;92.83;100890.16;6074412;23;20070;-80
2022/12/28 11:51:31;;;;;;;4.50;4.30;;;;;;;8.74;92.29;100657.84;6136432;23;20021;-79
2022/12/28 11:53:59;;;;;;;4.30;4.10;;;;;;;10.18;92.42;100878.22;6081278;23;20092;-79
2022/12/28 11:56:27;;;;;;;4.25;4.05;;;;;;;10.16;92.67;100892.28;6110257;23;20482;-79
2022/12/28 11:58:56;;;;;;;4.10;3.90;;;;;;;10.09;92.89;100868.16;6076463;23;20088;-80
2022/12/28 12:01:26;;;;;;;4.25;4.05;;;;;;;10.03;92.10;100860.56;6097696;23;20165;-78
2022/12/28 12:03:55;;;;;;;4.57;4.32;;;;;;;10.04;91.80;100861.41;6080660;23;20080;-83
2022/12/28 12:06:40;;;;;;;4.43;4.22;;;;;;;10.02;91.52;100856.22;6120145;23;20033;-81
2022/12/28 12:09:25;;;;;;;4.20;4.00;;;;;;;10.01;91.52;100857.16;6077908;23;20025;-83
2022/12/28 12:11:56;;;;;;;8.38;4.20;;;;;;;9.98;91.21;100846.81;6136928;23;20044;-79
2022/12/28 12:14:31;;;;;;;4.13;3.92;;;;;;;9.95;92.43;100842.56;6075222;23;20018;-80
2022/12/28 12:17:12;;;;;;;4.20;4.00;;;;;;;9.51;92.23;100794.88;6134571;23;20514;-81